createdAt,value
2018-02-25T00:01:56.017Z,67.40
2018-02-25T00:04:23.517Z,67.60
2018-02-25T00:06:51.082Z,67.40
2018-02-25T00:09:19.438Z,67.90
2018-02-25T00:11:46.983Z,67.50
2018-02-25T00:14:17.368Z,67.60
2018-02-25T00:16:45.669Z,67.30
2018-02-25T00:19:13.158Z,68.20
2018-02-25T00:21:40.697Z,68.10
2018-02-25T00:24:09.114Z,68.20
2018-02-25T00:26:37.137Z,68.00
2018-02-25T00:29:04.635Z,68.10
2018-02-25T00:31:32.127Z,68.10
2018-02-25T00:33:59.649Z,68.10
2018-02-25T00:36:27.121Z,68.20
2018-02-25T00:38:55.415Z,69.20
2018-02-25T00:41:23.979Z,69.30
2018-02-25T00:43:51.480Z,68.80
2018-02-25T00:46:18.960Z,69.10
2018-02-25T00:48:46.440Z,68.60
2018-02-25T00:51:13.984Z,69.30
2018-02-25T00:53:41.522Z,69.00
2018-02-25T00:56:09.014Z,69.20
2018-02-25T00:58:36.516Z,69.40
2018-02-25T01:01:04.027Z,69.70
2018-02-25T01:03:31.600Z,70.00
2018-02-25T01:05:59.915Z,70.00
2018-02-25T01:08:28.263Z,69.90
2018-02-25T01:10:55.751Z,70.00
2018-02-25T01:13:23.313Z,70.00
2018-02-25T01:15:50.803Z,69.70
2018-02-25T01:18:18.333Z,69.00
2018-02-25T01:20:45.889Z,69.30
2018-02-25T01:23:13.519Z,69.70
2018-02-25T01:25:41.795Z,69.80
2018-02-25T01:28:10.254Z,70.00
2018-02-25T01:30:37.845Z,69.60
2018-02-25T01:33:05.339Z,69.90
2018-02-25T01:35:32.880Z,69.60
2018-02-25T01:38:00.415Z,70.00
2018-02-25T01:40:28.670Z,73.30
2018-02-25T01:42:56.224Z,70.00
2018-02-25T01:45:23.687Z,70.10
2018-02-25T01:47:51.168Z,70.10
2018-02-25T01:50:19.631Z,70.80
2018-02-25T01:52:47.190Z,70.40
2018-02-25T01:55:14.727Z,70.80
2018-02-25T01:57:42.206Z,70.40
2018-02-25T02:00:09.729Z,70.30
2018-02-25T02:02:37.228Z,70.50
2018-02-25T02:05:04.783Z,70.70
2018-02-25T02:07:33.171Z,71.10
2018-02-25T02:10:00.673Z,70.30
2018-02-25T02:12:28.190Z,70.90
2018-02-25T02:14:56.451Z,71.30
2018-02-25T02:17:24.014Z,70.80
2018-02-25T02:19:51.728Z,70.70
2018-02-25T02:22:19.248Z,71.10
2018-02-25T02:24:47.497Z,71.70
2018-02-25T02:27:15.003Z,71.50
2018-02-25T02:29:42.518Z,70.90
2018-02-25T02:32:10.884Z,69.40
2018-02-25T02:34:39.330Z,73.40
2018-02-25T02:37:06.803Z,71.50
2018-02-25T02:39:34.340Z,71.50
2018-02-25T02:42:02.146Z,71.30
2018-02-25T02:44:29.626Z,71.70
2018-02-25T02:46:57.122Z,71.70
2018-02-25T02:49:24.597Z,71.70
2018-02-25T02:51:52.097Z,71.40
2018-02-25T02:54:20.301Z,71.50
2018-02-25T02:56:47.790Z,71.60
2018-02-25T02:59:15.271Z,71.70
2018-02-25T03:01:42.748Z,71.70
2018-02-25T03:04:11.155Z,72.60
2018-02-25T03:06:38.646Z,71.80
2018-02-25T03:09:06.133Z,71.90
2018-02-25T03:11:33.630Z,72.30
2018-02-25T03:14:01.539Z,72.00
2018-02-25T03:16:29.029Z,72.30
2018-02-25T03:18:56.537Z,72.70
2018-02-25T03:21:24.104Z,72.50
2018-02-25T03:23:51.598Z,72.80
2018-02-25T03:26:19.885Z,73.10
2018-02-25T03:28:48.132Z,73.00
2018-02-25T03:31:15.596Z,72.80
2018-02-25T03:33:43.117Z,72.80
2018-02-25T03:36:11.400Z,72.70
2018-02-25T03:38:38.891Z,73.10
2018-02-25T03:41:06.427Z,73.50
2018-02-25T03:43:34.675Z,73.80
2018-02-25T03:46:02.609Z,73.30
2018-02-25T03:48:30.837Z,74.00
2018-02-25T03:50:59.227Z,73.80
2018-02-25T03:53:26.751Z,73.90
2018-02-25T03:55:54.264Z,73.90
2018-02-25T03:58:21.787Z,73.60
2018-02-25T04:00:49.267Z,74.00
2018-02-25T04:03:16.757Z,74.00
2018-02-25T04:05:45.019Z,74.30
2018-02-25T04:08:12.528Z,73.70
2018-02-25T04:10:40.041Z,73.80
2018-02-25T04:13:08.315Z,74.70
2018-02-25T04:15:36.580Z,74.70
2018-02-25T04:18:04.096Z,74.60
2018-02-25T04:20:31.982Z,74.40
2018-02-25T04:22:59.788Z,75.80
2018-02-25T04:25:27.332Z,74.10
2018-02-25T04:27:54.815Z,74.30
2018-02-25T04:30:22.341Z,74.20
2018-02-25T04:32:50.672Z,75.50
2018-02-25T04:35:18.174Z,74.60
2018-02-25T04:37:46.574Z,74.80
2018-02-25T04:40:14.171Z,74.70
2018-02-25T04:42:42.719Z,74.80
2018-02-25T04:45:10.958Z,74.90
2018-02-25T04:47:38.458Z,74.90
2018-02-25T04:50:06.695Z,75.30
2018-02-25T04:52:34.550Z,75.00
2018-02-25T04:55:02.034Z,75.00
2018-02-25T04:57:30.316Z,75.00
2018-02-25T04:59:57.857Z,75.00
2018-02-25T05:02:25.335Z,75.10
2018-02-25T05:04:52.806Z,74.80
2018-02-25T05:07:20.336Z,75.20
2018-02-25T05:09:47.918Z,75.00
2018-02-25T05:12:16.240Z,75.60
2018-02-25T05:14:43.725Z,75.20
2018-02-25T05:17:11.843Z,75.40
2018-02-25T05:19:40.144Z,75.90
2018-02-25T05:22:08.415Z,76.00
2018-02-25T05:24:35.975Z,76.00
2018-02-25T05:27:03.448Z,75.80
2018-02-25T05:29:31.732Z,74.40
2018-02-25T05:31:59.502Z,75.60
2018-02-25T05:34:26.975Z,75.60
2018-02-25T05:36:54.450Z,75.90
2018-02-25T05:39:22.731Z,76.10
2018-02-25T05:41:50.244Z,75.70
2018-02-25T05:44:17.728Z,76.70
2018-02-25T05:46:45.219Z,76.20
2018-02-25T05:49:13.737Z,76.40
2018-02-25T05:51:41.323Z,76.20
2018-02-25T05:54:08.905Z,76.30
2018-02-25T05:56:36.440Z,76.20
2018-02-25T05:59:03.939Z,76.40
2018-02-25T06:01:31.463Z,76.50
2018-02-25T06:03:58.998Z,76.40
2018-02-25T06:06:26.564Z,76.30
2018-02-25T06:08:54.098Z,76.40
2018-02-25T06:11:21.617Z,76.30
2018-02-25T06:13:49.933Z,76.60
2018-02-25T06:16:17.437Z,76.30
2018-02-25T06:18:44.932Z,76.40
2018-02-25T06:21:12.433Z,74.70
2018-02-25T06:23:39.948Z,76.50
2018-02-25T06:26:08.296Z,76.70
2018-02-25T06:28:35.781Z,76.20
2018-02-25T06:31:03.296Z,76.60
2018-02-25T06:33:30.827Z,76.60
2018-02-25T06:35:58.325Z,76.90
2018-02-25T06:38:25.814Z,76.50
2018-02-25T06:40:53.306Z,75.90
2018-02-25T06:43:20.872Z,76.20
2018-02-25T06:45:48.367Z,76.20
2018-02-25T06:48:15.860Z,76.00
2018-02-25T06:50:43.351Z,75.50
2018-02-25T06:53:10.849Z,75.50
2018-02-25T06:55:38.808Z,74.90
2018-02-25T06:58:07.222Z,75.20
2018-02-25T07:00:34.781Z,75.80
2018-02-25T07:03:03.609Z,75.20
2018-02-25T07:05:31.118Z,73.60
2018-02-25T07:07:58.705Z,73.20
2018-02-25T07:10:26.248Z,73.60
2018-02-25T07:12:53.775Z,73.40
2018-02-25T07:15:22.046Z,73.80
2018-02-25T07:17:50.338Z,73.90
2018-02-25T07:20:18.590Z,73.40
2018-02-25T07:22:46.148Z,73.30
2018-02-25T07:25:20.808Z,73.10
2018-02-25T07:27:48.456Z,73.10
2018-02-25T07:30:15.904Z,72.60
2018-02-25T07:32:43.426Z,72.20
2018-02-25T07:35:10.985Z,70.50
2018-02-25T07:37:38.533Z,70.50
2018-02-25T07:40:06.897Z,69.80
2018-02-25T07:42:34.463Z,69.40
2018-02-25T07:45:02.658Z,66.20
2018-02-25T07:47:30.160Z,65.80
2018-02-25T07:49:58.387Z,64.50
2018-02-25T07:52:26.669Z,64.20
2018-02-25T07:54:54.151Z,63.30
2018-02-25T07:57:21.638Z,63.10
2018-02-25T07:59:49.152Z,63.20
2018-02-25T08:02:16.646Z,61.70
2018-02-25T08:04:44.179Z,65.10
2018-02-25T08:07:11.648Z,64.60
2018-02-25T08:09:39.903Z,63.50
2018-02-25T08:12:07.393Z,62.50
2018-02-25T08:14:34.878Z,63.20
2018-02-25T08:17:02.848Z,62.70
2018-02-25T08:22:04.367Z,62.30
2018-02-25T08:24:31.899Z,60.90
2018-02-25T08:26:59.371Z,60.90
2018-02-25T08:29:26.910Z,60.20
2018-02-25T08:32:22.453Z,60.70
2018-02-25T08:34:50.155Z,60.20
2018-02-25T08:37:17.629Z,59.60
2018-02-25T08:39:45.518Z,58.10
2018-02-25T08:42:13.031Z,57.90
2018-02-25T08:44:40.537Z,58.20
2018-02-25T08:47:08.397Z,56.30
2018-02-25T08:49:35.949Z,55.60
2018-02-25T08:52:03.423Z,56.40
2018-02-25T08:54:30.926Z,57.10
2018-02-25T08:56:59.214Z,55.20
2018-02-25T08:59:26.706Z,54.50
2018-02-25T09:01:54.247Z,54.60
2018-02-25T09:04:21.727Z,54.00
2018-02-25T09:06:49.214Z,53.00
2018-02-25T09:09:16.702Z,49.30
2018-02-25T09:11:44.254Z,49.50
2018-02-25T09:14:11.770Z,49.50
2018-02-25T09:16:39.302Z,47.00
2018-02-25T09:19:06.791Z,47.50
2018-02-25T09:21:35.044Z,46.50
2018-02-25T09:24:02.589Z,47.20
2018-02-25T09:26:30.102Z,45.20
2018-02-25T09:28:58.360Z,44.90
2018-02-25T09:31:25.854Z,41.60
2018-02-25T09:33:54.221Z,40.90
2018-02-25T09:36:21.736Z,40.90
2018-02-25T09:38:49.240Z,39.80
2018-02-25T09:41:17.520Z,39.50
2018-02-25T09:43:45.767Z,38.50
2018-02-25T09:46:13.280Z,38.60
2018-02-25T09:48:41.196Z,36.60
2018-02-25T09:51:08.712Z,37.00
2018-02-25T09:53:36.268Z,36.50
2018-02-25T09:56:03.777Z,36.50
2018-02-25T09:58:31.311Z,36.80
2018-02-25T10:00:58.843Z,37.30
2018-02-25T10:03:27.244Z,33.80
2018-02-25T10:05:54.751Z,34.40
2018-02-25T10:08:23.883Z,34.80
2018-02-25T10:10:51.416Z,34.10
2018-02-25T10:13:18.916Z,34.60
2018-02-25T10:15:46.399Z,35.10
2018-02-25T10:18:13.896Z,35.20
2018-02-25T10:20:41.593Z,35.40
2018-02-25T10:23:09.093Z,33.50
2018-02-25T10:25:36.639Z,33.30
2018-02-25T10:28:04.148Z,32.70
2018-02-25T10:30:31.846Z,33.10
2018-02-25T10:32:59.368Z,32.90
2018-02-25T10:35:26.860Z,33.10
2018-02-25T10:37:54.365Z,33.70
2018-02-25T10:40:21.843Z,34.00
2018-02-25T10:42:49.330Z,35.30
2018-02-25T10:45:16.863Z,35.50
2018-02-25T10:47:44.365Z,35.20
2018-02-25T10:50:11.904Z,35.60
2018-02-25T10:52:39.416Z,34.70
2018-02-25T10:55:06.932Z,32.00
2018-02-25T10:57:34.454Z,32.90
2018-02-25T11:00:01.943Z,33.20
2018-02-25T11:02:29.436Z,31.90
2018-02-25T11:04:57.706Z,32.80
2018-02-25T11:07:25.965Z,34.10
2018-02-25T11:09:56.377Z,33.30
2018-02-25T11:12:24.716Z,33.00
2018-02-25T11:14:52.198Z,32.70
2018-02-25T11:17:19.682Z,32.80
2018-02-25T11:19:47.217Z,31.80
2018-02-25T11:22:14.739Z,31.10
2018-02-25T11:24:42.253Z,31.30
2018-02-25T11:27:09.999Z,31.70
2018-02-25T11:29:37.727Z,34.00
2018-02-25T11:32:05.469Z,30.40
2018-02-25T11:34:33.010Z,31.10
2018-02-25T11:37:00.533Z,31.00
2018-02-25T11:39:28.060Z,32.40
2018-02-25T11:41:55.584Z,30.80
2018-02-25T11:44:23.892Z,31.30
2018-02-25T11:46:51.410Z,31.30
2018-02-25T11:49:19.688Z,30.00
2018-02-25T11:51:47.215Z,30.00
2018-02-25T11:54:14.698Z,30.50
2018-02-25T11:56:42.186Z,29.50
2018-02-25T11:59:10.471Z,28.90
2018-02-25T12:01:38.712Z,29.40
2018-02-25T12:04:06.217Z,29.20
2018-02-25T12:06:33.716Z,28.40
2018-02-25T12:09:01.234Z,28.50
2018-02-25T12:11:28.738Z,27.80
2018-02-25T12:13:56.272Z,27.80
2018-02-25T12:16:23.783Z,26.90
2018-02-25T12:18:51.283Z,27.10
2018-02-25T12:21:20.155Z,27.20
2018-02-25T12:23:47.962Z,27.00
2018-02-25T12:26:15.443Z,27.30
2018-02-25T12:28:43.730Z,26.50
2018-02-25T12:31:11.229Z,26.40
2018-02-25T12:33:38.718Z,26.50
2018-02-25T12:36:06.211Z,26.90
2018-02-25T12:38:33.747Z,26.80
2018-02-25T12:41:01.248Z,26.80
2018-02-25T12:43:28.739Z,26.50
2018-02-25T12:45:56.222Z,26.80
2018-02-25T12:48:23.710Z,27.40
2018-02-25T12:50:51.207Z,28.00
2018-02-25T12:53:18.684Z,27.90
2018-02-25T12:55:46.170Z,29.90
2018-02-25T12:58:13.663Z,32.30
2018-02-25T13:00:41.163Z,33.60
2018-02-25T13:03:08.709Z,33.30
2018-02-25T13:05:36.181Z,33.20
2018-02-25T13:08:03.734Z,33.60
2018-02-25T13:10:31.486Z,34.50
2018-02-25T13:12:58.986Z,33.50
2018-02-25T13:15:26.454Z,33.80
2018-02-25T13:17:53.947Z,33.10
2018-02-25T13:20:21.471Z,32.60
2018-02-25T13:22:48.944Z,33.60
2018-02-25T13:25:16.447Z,32.50
2018-02-25T13:27:43.988Z,32.20
2018-02-25T13:30:11.472Z,32.30
2018-02-25T13:32:38.996Z,32.80
2018-02-25T13:35:07.181Z,31.50
2018-02-25T13:37:34.678Z,32.50
2018-02-25T13:40:02.902Z,32.00
2018-02-25T13:42:30.404Z,31.80
2018-02-25T13:44:58.661Z,30.50
2018-02-25T13:47:26.160Z,30.30
2018-02-25T13:49:53.655Z,30.90
2018-02-25T13:52:21.424Z,31.10
2018-02-25T13:54:48.934Z,30.80
2018-02-25T13:57:17.233Z,30.50
2018-02-25T13:59:44.721Z,30.20
2018-02-25T14:02:12.239Z,30.50
2018-02-25T14:04:39.729Z,29.10
2018-02-25T14:07:07.209Z,29.00
2018-02-25T14:09:34.697Z,28.50
2018-02-25T14:12:02.207Z,28.10
2018-02-25T14:14:29.703Z,28.70
2018-02-25T14:16:58.460Z,28.30
2018-02-25T14:19:25.971Z,28.30
2018-02-25T14:21:53.472Z,28.00
2018-02-25T14:24:20.985Z,27.60
2018-02-25T14:26:48.507Z,27.30
2018-02-25T14:29:16.004Z,26.70
2018-02-25T14:31:43.474Z,26.60
2018-02-25T14:34:10.949Z,27.10
2018-02-25T14:36:38.418Z,26.90
2018-02-25T14:39:05.926Z,27.50
2018-02-25T14:41:33.464Z,28.60
2018-02-25T14:44:00.930Z,28.50
2018-02-25T14:46:28.520Z,28.00
2018-02-25T14:48:56.045Z,28.20
2018-02-25T14:51:24.078Z,28.40
2018-02-25T14:53:51.601Z,28.20
2018-02-25T14:56:19.082Z,28.70
2018-02-25T14:58:47.363Z,29.00
2018-02-25T15:01:14.832Z,28.90
2018-02-25T15:03:42.462Z,29.40
2018-02-25T15:06:09.951Z,29.60
2018-02-25T15:08:37.440Z,29.50
2018-02-25T15:11:06.132Z,30.00
2018-02-25T15:13:34.420Z,29.00
2018-02-25T15:16:01.926Z,28.90
2018-02-25T15:18:29.426Z,28.60
2018-02-25T15:21:00.179Z,28.60
2018-02-25T15:23:28.917Z,28.50
2018-02-25T15:25:56.601Z,29.40
2018-02-25T15:28:24.386Z,29.80
2018-02-25T15:30:51.884Z,30.00
2018-02-25T15:33:19.379Z,29.50
2018-02-25T15:35:47.675Z,29.20
2018-02-25T15:38:15.933Z,29.50
2018-02-25T15:40:44.428Z,29.40
2018-02-25T15:43:12.703Z,29.00
2018-02-25T15:45:40.181Z,28.90
2018-02-25T15:48:07.701Z,28.10
2018-02-25T15:50:35.174Z,28.10
2018-02-25T15:53:03.428Z,28.50
2018-02-25T15:55:30.940Z,28.40
2018-02-25T15:57:58.459Z,28.30
2018-02-25T16:00:26.001Z,29.10
2018-02-25T16:02:53.503Z,31.30
2018-02-25T16:05:21.005Z,32.10
2018-02-25T16:07:48.562Z,33.00
2018-02-25T16:10:16.069Z,33.90
2018-02-25T16:12:43.573Z,35.20
2018-02-25T16:15:11.159Z,35.20
2018-02-25T16:17:38.682Z,35.00
2018-02-25T16:20:06.226Z,35.40
2018-02-25T16:22:33.746Z,36.30
2018-02-25T16:25:02.076Z,37.30
2018-02-25T16:27:29.620Z,36.20
2018-02-25T16:29:57.145Z,36.60
2018-02-25T16:32:25.423Z,37.40
2018-02-25T16:34:52.932Z,37.80
2018-02-25T16:37:20.442Z,37.10
2018-02-25T16:39:48.723Z,37.80
2018-02-25T16:42:16.267Z,37.40
2018-02-25T16:44:44.560Z,38.00
2018-02-25T16:47:12.103Z,37.60
2018-02-25T16:49:40.413Z,37.40
2018-02-25T16:52:08.680Z,37.90
2018-02-25T16:54:36.261Z,37.70
2018-02-25T16:57:03.718Z,37.90
2018-02-25T16:59:31.198Z,38.90
2018-02-25T17:01:58.714Z,39.30
2018-02-25T17:07:00.180Z,38.60
2018-02-25T17:09:27.695Z,39.40
2018-02-25T17:11:55.181Z,39.50
2018-02-25T17:14:22.678Z,40.40
2018-02-25T17:16:50.204Z,40.60
2018-02-25T17:19:17.697Z,40.90
2018-02-25T17:21:45.236Z,41.50
2018-02-25T17:24:12.707Z,41.20
2018-02-25T17:26:40.200Z,41.50
2018-02-25T17:29:07.708Z,41.60
2018-02-25T17:31:35.196Z,41.40
2018-02-25T17:34:03.228Z,41.30
2018-02-25T17:36:30.738Z,41.60
2018-02-25T17:38:58.235Z,41.80
2018-02-25T17:41:25.758Z,42.40
2018-02-25T17:43:53.251Z,42.30
2018-02-25T17:46:20.751Z,42.20
2018-02-25T17:48:48.252Z,42.50
2018-02-25T17:51:16.510Z,43.20
2018-02-25T17:53:44.187Z,42.90
2018-02-25T17:56:11.804Z,43.10
2018-02-25T17:58:39.333Z,42.60
2018-02-25T18:01:06.817Z,43.20
2018-02-25T18:03:34.291Z,43.40
2018-02-25T18:06:01.807Z,43.70
2018-02-25T18:08:30.075Z,43.30
2018-02-25T18:10:57.589Z,43.60
2018-02-25T18:13:25.077Z,44.00
2018-02-25T18:15:53.610Z,44.30
2018-02-25T18:18:21.130Z,43.40
2018-02-25T18:20:48.630Z,42.50
2018-02-25T18:23:16.138Z,43.00
2018-02-25T18:25:44.387Z,43.60
2018-02-25T18:28:11.900Z,43.30
2018-02-25T18:30:39.423Z,43.50
2018-02-25T18:33:07.299Z,42.80
2018-02-25T18:35:34.876Z,43.10
2018-02-25T18:38:02.330Z,43.60
2018-02-25T18:40:29.824Z,43.50
2018-02-25T18:42:57.325Z,44.30
2018-02-25T18:45:24.807Z,44.30
2018-02-25T18:47:52.364Z,44.50
2018-02-25T18:50:20.260Z,43.90
2018-02-25T18:52:47.772Z,44.30
2018-02-25T18:55:15.681Z,44.10
2018-02-25T18:57:43.185Z,44.20
2018-02-25T19:00:11.082Z,44.40
2018-02-25T19:02:38.561Z,44.10
2018-02-25T19:05:06.056Z,43.80
2018-02-25T19:07:33.537Z,44.10
2018-02-25T19:10:01.056Z,43.90
2018-02-25T19:12:28.563Z,43.70
2018-02-25T19:14:56.094Z,43.70
2018-02-25T19:17:23.592Z,44.10
2018-02-25T19:19:51.079Z,44.50
2018-02-25T19:22:18.590Z,44.00
2018-02-25T19:24:46.857Z,44.70
2018-02-25T19:27:15.103Z,45.00
2018-02-25T19:29:42.582Z,44.80
2018-02-25T19:32:10.876Z,45.80
2018-02-25T19:34:38.777Z,45.10
2018-02-25T19:37:11.990Z,45.60
2018-02-25T19:39:45.193Z,45.70
2018-02-25T19:42:12.759Z,45.40
2018-02-25T19:44:40.268Z,45.80
2018-02-25T19:47:07.791Z,44.50
2018-02-25T19:49:35.301Z,44.80
2018-02-25T19:52:02.774Z,44.80
2018-02-25T19:54:31.092Z,44.90
2018-02-25T19:56:58.564Z,45.40
2018-02-25T19:59:26.094Z,44.70
2018-02-25T20:01:54.335Z,45.20
2018-02-25T20:04:21.850Z,44.40
2018-02-25T20:06:49.355Z,44.50
2018-02-25T20:09:17.074Z,44.50
2018-02-25T20:11:44.566Z,43.80
2018-02-25T20:14:12.032Z,43.70
2018-02-25T20:16:39.498Z,43.90
2018-02-25T20:19:07.027Z,44.40
2018-02-25T20:21:34.501Z,44.50
2018-02-25T20:24:02.317Z,44.80
2018-02-25T20:26:29.808Z,44.00
2018-02-25T20:28:57.281Z,44.70
2018-02-25T20:31:24.801Z,45.00
2018-02-25T20:33:52.286Z,45.60
2018-02-25T20:36:19.770Z,45.70
2018-02-25T20:38:48.031Z,46.60
2018-02-25T20:41:15.513Z,46.70
2018-02-25T20:43:43.763Z,47.10
2018-02-25T20:46:12.454Z,47.70
2018-02-25T20:48:40.770Z,48.30
2018-02-25T20:51:08.245Z,48.60
2018-02-25T20:53:35.725Z,49.20
2018-02-25T20:56:03.210Z,49.80
2018-02-25T20:58:30.698Z,50.10
2018-02-25T21:00:58.232Z,50.60
2018-02-25T21:03:25.723Z,51.10
2018-02-25T21:05:53.231Z,51.10
2018-02-25T21:08:20.759Z,51.40
2018-02-25T21:10:48.250Z,51.60
2018-02-25T21:13:15.796Z,52.30
2018-02-25T21:15:43.259Z,52.30
2018-02-25T21:18:10.760Z,52.60
2018-02-25T21:20:38.517Z,52.80
2018-02-25T21:23:05.997Z,53.10
2018-02-25T21:25:33.520Z,53.50
2018-02-25T21:28:01.783Z,54.50
2018-02-25T21:30:29.269Z,54.30
2018-02-25T21:32:57.553Z,55.20
2018-02-25T21:35:25.066Z,55.10
2018-02-25T21:37:52.593Z,55.10
2018-02-25T21:40:20.071Z,55.60
2018-02-25T21:42:47.561Z,55.80
2018-02-25T21:45:15.063Z,56.30
2018-02-25T21:47:42.552Z,56.40
2018-02-25T21:50:10.050Z,56.70
2018-02-25T21:52:43.115Z,56.70
2018-02-25T21:55:10.601Z,56.60
2018-02-25T21:57:54.197Z,56.90
2018-02-25T22:03:28.238Z,56.70
2018-02-25T22:05:55.947Z,56.60
2018-02-25T22:08:23.462Z,57.10
2018-02-25T22:10:50.929Z,57.10
2018-02-25T22:13:18.435Z,57.20
2018-02-25T22:15:46.199Z,57.60
2018-02-25T22:18:13.674Z,58.00
2018-02-25T22:20:41.415Z,58.00
2018-02-25T22:23:08.886Z,57.90
2018-02-25T22:25:36.370Z,58.20
2018-02-25T22:28:03.836Z,58.80
2018-02-25T22:30:32.072Z,59.90
2018-02-25T22:32:59.570Z,59.80
2018-02-25T22:35:27.043Z,59.80
2018-02-25T22:37:54.520Z,60.00
2018-02-25T22:40:22.002Z,60.30
2018-02-25T22:42:49.489Z,60.70
2018-02-25T22:45:16.976Z,61.00
2018-02-25T22:47:44.454Z,60.50
2018-02-25T22:50:11.921Z,61.10
2018-02-25T22:52:39.413Z,59.60
2018-02-25T22:55:06.881Z,59.90
2018-02-25T22:57:34.352Z,59.70
2018-02-25T23:00:02.609Z,59.70
2018-02-25T23:02:30.076Z,58.90
2018-02-25T23:05:08.626Z,59.20
2018-02-25T23:07:36.119Z,58.90
2018-02-25T23:10:03.598Z,59.50
2018-02-25T23:12:31.078Z,60.40
2018-02-25T23:14:58.565Z,60.30
2018-02-25T23:17:26.042Z,60.20
2018-02-25T23:19:53.542Z,60.90
2018-02-25T23:22:21.779Z,61.10
2018-02-25T23:24:49.230Z,61.10
2018-02-25T23:27:16.710Z,60.50
2018-02-25T23:29:44.194Z,60.70
2018-02-25T23:32:12.448Z,61.60
2018-02-25T23:34:39.944Z,61.50
2018-02-25T23:37:07.397Z,61.80
2018-02-25T23:39:35.624Z,61.90
2018-02-25T23:42:03.129Z,61.80
2018-02-25T23:44:30.795Z,63.00
2018-02-25T23:46:58.300Z,62.20
2018-02-25T23:49:25.767Z,62.60
2018-02-25T23:51:54.562Z,62.70
2018-02-25T23:54:22.043Z,63.20
2018-02-25T23:56:50.278Z,63.50
2018-02-25T23:59:17.767Z,63.50
